Savage Opportunity — WDG6313 — position and weather

sailwx.info

Track history (hours):
 
Tides and Currents Weather Stations Pressure Air Temp Water Temp Dewpoint Dewpoint Depression Visibility Wind Speed Wind Dir Waves Ship Positions

Savage Opportunity

Owner: Savage Inland Marine, Gibson, LA. More information available from US FCC via Universal Licensing System and Coast Guard Vessel Documentation Center.

Last reported at 2018-May-21 12:30 UTC. Time now 2018-May-21 12:49 UTC.
Position N 29°42' W 094°60'.

Length 25 m.

Type: Other ship. MMSI: 367555670.

Date/timePositionNaut miles runAvg speedWind from/ knotsBaromVisibWave heightAir tempDewpointWater temp
2018-May-21 12:30N 29°42' W 094°60'1 2.0
2018-May-21 12:00N 29°41' W 094°59'2 3.2
2018-May-21 11:30N 29°41' W 094°57'1 2.1
2018-May-21 11:00N 29°40' W 094°56'0 0.0
2018-May-21 10:29N 29°40' W 094°56'0 0.0
2018-May-21 10:00N 29°40' W 094°56'0 0.0
2018-May-21 09:30N 29°40' W 094°56'0 0.0
2018-May-21 09:00N 29°40' W 094°56'0 0.0
2018-May-21 08:30N 29°40' W 094°56'0 0.0
2018-May-21 08:00N 29°40' W 094°56'0 0.0
2018-May-21 07:30N 29°40' W 094°56'0 0.0
2018-May-21 07:00N 29°40' W 094°56'0 0.0
2018-May-21 06:30N 29°40' W 094°56'0 0.0
2018-May-21 06:00N 29°40' W 094°56'0 0.0
2018-May-21 05:30N 29°40' W 094°56'0 0.0
2018-May-21 05:00N 29°40' W 094°56'0 0.0
2018-May-21 04:30N 29°40' W 094°56'0 0.0
2018-May-21 04:00N 29°40' W 094°56'0 0.0
2018-May-21 03:30N 29°40' W 094°56'0 0.0
2018-May-21 03:00N 29°40' W 094°56'0 0.0
2018-May-21 02:30N 29°40' W 094°56'0 0.0
2018-May-21 02:00N 29°40' W 094°56'0 0.0
2018-May-21 01:30N 29°40' W 094°56'0 0.0
2018-May-21 01:00N 29°40' W 094°56'0 0.0
2018-May-21 00:30N 29°40' W 094°56'0 0.1
2018-May-20 23:58N 29°40' W 094°56'2 5.3
2018-May-20 23:30N 29°41' W 094°58'4 7.1
2018-May-20 23:00N 29°38' W 094°58'5 9.3
2018-May-20 22:30N 29°34' W 094°55'5 9.7
2018-May-20 22:00N 29°30' W 094°52'610.0
2018-May-20 21:25N 29°24' W 094°49'4 9.9
2018-May-20 21:00N 29°21' W 094°47'2 4.8
2018-May-20 20:30N 29°19' W 094°48'1 2.2
2018-May-20 20:00N 29°19' W 094°49'0 0.4
2018-May-20 19:30N 29°19' W 094°49'2 4.7
2018-May-20 19:00N 29°20' W 094°47'20 4.7
2018-May-20 14:43N 29°32' W 094°29'0 0.6
2018-May-20 14:29N 29°33' W 094°29'2 1.3
2018-May-20 13:16N 29°34' W 094°27'2 4.7
2018-May-20 12:54N 29°34' W 094°25'2 4.4
2018-May-20 12:28N 29°36' W 094°25'4 5.3
2018-May-20 11:47N 29°37' W 094°21'2 5.4
2018-May-20 11:29N 29°38' W 094°19'3 5.3
2018-May-20 11:00N 29°39' W 094°16'3 5.2
2018-May-20 10:30N 29°40' W 094°14'3 5.3
2018-May-20 10:00N 29°41' W 094°11'3 5.1
2018-May-20 09:30N 29°42' W 094°08'3 5.4
2018-May-20 09:00N 29°44' W 094°06'3 5.2
2018-May-20 08:30N 29°46' W 094°04'3 5.3
2018-May-20 08:00N 29°47' W 094°01'3 5.2
2018-May-20 07:30N 29°49' W 093°59'1 1.0
2018-May-20 07:00N 29°49' W 093°58'0 0.0
2018-May-20 06:30N 29°49' W 093°58'1 1.2
2018-May-20 06:00N 29°49' W 093°58'3 6.9
2018-May-20 05:30N 29°52' W 093°56'4 7.5
2018-May-20 05:00N 29°55' W 093°53'3 6.7
2018-May-20 04:30N 29°58' W 093°51'3 5.9
2018-May-20 04:00N 29°59' W 093°48'4 7.0
2018-May-20 03:30N 30°01' W 093°45'3 5.8
2018-May-20 03:00N 30°03' W 093°42'3 5.8
2018-May-20 02:30N 30°04' W 093°39'3 5.5
2018-May-20 02:00N 30°04' W 093°36'3 5.3
2018-May-20 01:30N 30°04' W 093°33'3 5.6
2018-May-20 01:00N 30°04' W 093°29'3 5.6
2018-May-20 00:30N 30°04' W 093°26'3 5.6
2018-May-20 00:00N 30°04' W 093°23'2 4.1
2018-May-19 23:30N 30°04' W 093°21'3 5.0
2018-May-19 23:00N 30°06' W 093°19'1 2.8
2018-May-19 22:30N 30°05' W 093°18'1 2.9
2018-May-19 22:00N 30°04' W 093°16'0 0.2
2018-May-19 21:29N 30°04' W 093°16'0 0.0
2018-May-19 21:00N 30°04' W 093°16'0 0.0
2018-May-19 20:30N 30°04' W 093°16'0 0.0
2018-May-19 20:00N 30°04' W 093°16'0 0.0
2018-May-19 19:30N 30°04' W 093°16'0 0.0
2018-May-19 19:00N 30°04' W 093°16'0 0.1
2018-May-19 18:30N 30°04' W 093°16'1 2.7
2018-May-19 18:00N 30°03' W 093°16'2 4.3
2018-May-19 17:30N 30°01' W 093°14'2 3.7
2018-May-19 17:00N 29°60' W 093°13'1 2.5
2018-May-19 16:30N 29°59' W 093°12'2 4.2
2018-May-19 16:00N 29°57' W 093°11'2 4.6
2018-May-19 15:30N 29°56' W 093°08'121 4.1
2018-May-18 09:53N 29°32' W 090°52'2 5.4
2018-May-18 09:30N 29°32' W 090°49'3 5.2
2018-May-18 08:59N 29°32' W 090°46'2 4.6
2018-May-18 08:30N 29°34' W 090°45'2 3.1
2018-May-18 08:00N 29°35' W 090°43'1 2.9
2018-May-18 07:30N 29°36' W 090°43'1 2.5
2018-May-18 07:00N 29°37' W 090°41'2 4.3
2018-May-18 06:30N 29°36' W 090°39'2 4.1
2018-May-18 06:00N 29°35' W 090°37'2 3.7
2018-May-18 05:30N 29°35' W 090°35'2 4.7
2018-May-18 05:00N 29°34' W 090°32'  
2018-May-15 08:09N 29°33' W 090°24'1 5.0
2018-May-15 07:52N 29°33' W 090°26'0 0.7
2018-May-15 07:27N 29°33' W 090°26'0 0.3
2018-May-15 07:00N 29°33' W 090°26'3 5.2
2018-May-15 06:30N 29°34' W 090°29'3 5.8
2018-May-15 06:00N 29°34' W 090°32'3 5.5
2018-May-15 05:30N 29°35' W 090°35'2 4.4
2018-May-15 05:00N 29°35' W 090°38'0 0.1
2018-May-15 04:30N 29°35' W 090°38'0 0.0
2018-May-15 04:00N 29°35' W 090°38'2 3.2
2018-May-15 03:30N 29°36' W 090°39'2 4.7
2018-May-15 03:00N 29°37' W 090°42'2 3.7
2018-May-15 02:30N 29°35' W 090°43'2 4.3
2018-May-15 02:00N 29°34' W 090°45'3 5.3
2018-May-15 01:30N 29°32' W 090°47'4 6.7
2018-May-15 00:59N 29°32' W 090°51'3 6.6
2018-May-15 00:29N 29°33' W 090°55'44 4.4
2018-May-14 14:29N 29°46' W 091°43'3 6.0
2018-May-14 13:58N 29°46' W 091°47'3 5.6
2018-May-14 13:26N 29°48' W 091°49'3 5.1
2018-May-14 12:52N 29°51' W 091°51'2 5.7
2018-May-14 12:30N 29°51' W 091°54'1 2.4
2018-May-14 12:00N 29°51' W 091°55'1 1.3
2018-May-14 11:26N 29°51' W 091°56'2 4.3
2018-May-14 11:00N 29°50' W 091°58'5 5.1
2018-May-14 09:59N 29°49' W 092°04'2 4.9
2018-May-14 09:29N 29°48' W 092°06'3 4.9
2018-May-14 08:57N 29°47' W 092°09'4 2.2
2018-May-14 07:16N 29°48' W 092°13'2 1.9
2018-May-14 06:10N 29°48' W 092°16'0 0.0
2018-May-14 05:51N 29°48' W 092°16'0 0.0
2018-May-14 05:30N 29°48' W 092°16'0 0.0
2018-May-14 04:45N 29°48' W 092°16'0 0.1
2018-May-14 04:29N 29°48' W 092°16'0 0.1
2018-May-14 04:00N 29°48' W 092°16'0 0.0
2018-May-14 03:30N 29°48' W 092°16'0 0.0
2018-May-14 03:00N 29°48' W 092°16'42 4.4
2018-May-13 17:30N 29°56' W 093°03'3 4.6
2018-May-13 16:47N 29°56' W 093°07'2 5.2
2018-May-13 16:24N 29°56' W 093°09'2 5.0
2018-May-13 16:00N 29°57' W 093°11'3 5.3
2018-May-13 15:30N 29°59' W 093°13'2 4.4
2018-May-13 15:00N 30°01' W 093°14'1 1.6
2018-May-13 14:30N 30°02' W 093°15'1 1.9
2018-May-13 14:00N 30°02' W 093°15'3 5.2
2018-May-13 13:30N 30°05' W 093°17'1 2.4
2018-May-13 13:00N 30°05' W 093°18'1 1.4
2018-May-13 12:30N 30°06' W 093°18'0 0.2
2018-May-13 12:00N 30°06' W 093°18'2 3.8
2018-May-13 11:30N 30°05' W 093°20'2 3.4
2018-May-13 11:00N 30°04' W 093°21'2 3.3
2018-May-13 10:30N 30°04' W 093°23'0 0.4
2018-May-13 10:00N 30°04' W 093°24'0 0.5
2018-May-13 09:30N 30°04' W 093°24'2 4.9
2018-May-13 09:00N 30°04' W 093°27'3 5.2
2018-May-13 08:30N 30°04' W 093°30'3 5.1
2018-May-13 08:00N 30°04' W 093°33'3 5.3
2018-May-13 07:30N 30°04' W 093°36'3 5.5
2018-May-13 06:59N 30°04' W 093°39'3 5.4
2018-May-13 06:30N 30°03' W 093°42'2 4.0
2018-May-13 06:00N 30°02' W 093°44'2 4.9
2018-May-13 05:30N 30°00' W 093°46'3 5.0
2018-May-13 05:00N 29°59' W 093°48'3 5.2
2018-May-13 04:30N 29°58' W 093°51'3 5.9
2018-May-13 04:00N 29°56' W 093°53'3 5.8
2018-May-13 03:30N 29°53' W 093°55'2 4.3
2018-May-13 03:00N 29°52' W 093°56'1 2.5
2018-May-13 02:30N 29°51' W 093°57'2 3.5
2018-May-13 02:00N 29°49' W 093°58'2 4.8
2018-May-13 01:30N 29°48' W 094°00'3 6.1
2018-May-13 01:00N 29°46' W 094°03'3 5.7
2018-May-13 00:30N 29°44' W 094°06'3 5.6
2018-May-13 00:00N 29°42' W 094°08'3 5.4
2018-May-12 23:30N 29°41' W 094°11'2 4.3
2018-May-12 23:00N 29°40' W 094°13'3 5.2
2018-May-12 22:30N 29°39' W 094°16'3 5.2
2018-May-12 22:00N 29°38' W 094°19'3 5.1
2018-May-12 21:30N 29°37' W 094°21'1 2.8
2018-May-12 20:59N 29°36' W 094°23'0 0.1
2018-May-12 20:30N 29°36' W 094°23'0 0.1
2018-May-12 19:58N 29°36' W 094°23'1 3.0
2018-May-12 19:30N 29°36' W 094°24'2 3.3
2018-May-12 18:51N 29°34' W 094°26'20 4.3
2018-May-12 14:06N 29°23' W 094°46'1 4.5
2018-May-12 13:57N 29°23' W 094°46'2 4.8
2018-May-12 13:30N 29°21' W 094°47'3 5.7
2018-May-12 13:00N 29°19' W 094°49'0 0.3
2018-May-12 12:20N 29°19' W 094°49'1 4.4
2018-May-12 12:00N 29°19' W 094°47'3 6.5
2018-May-12 11:30N 29°22' W 094°48'7 7.5
2018-May-12 10:36N 29°28' W 094°51'1 7.4
2018-May-12 10:29N 29°29' W 094°52'4 7.8
2018-May-12 10:00N 29°32' W 094°54'4 7.9
2018-May-12 09:29N 29°36' W 094°57'4 7.9
2018-May-12 09:00N 29°39' W 094°58'2 4.2
2018-May-12 08:30N 29°41' W 094°59'2 3.5
2018-May-12 08:00N 29°41' W 094°57'1 1.7
2018-May-12 07:30N 29°40' W 094°56'0 0.0
2018-May-12 07:00N 29°40' W 094°56'0 0.0
2018-May-12 06:30N 29°40' W 094°56'0 0.0
2018-May-12 05:59N 29°40' W 094°56'0 0.0
2018-May-12 05:30N 29°40' W 094°56'0 0.0
2018-May-12 05:00N 29°40' W 094°56'0 0.0
2018-May-12 04:24N 29°40' W 094°56'0 0.0
2018-May-12 04:00N 29°40' W 094°56'0 0.0
2018-May-12 03:28N 29°40' W 094°56'0 0.0
2018-May-12 02:56N 29°40' W 094°56'0 0.0
2018-May-12 02:27N 29°40' W 094°56'0 0.0
2018-May-12 01:53N 29°40' W 094°56'0 0.0
2018-May-12 01:30N 29°40' W 094°56'0 0.0
2018-May-12 00:29N 29°40' W 094°56'0 0.0
2018-May-12 00:00N 29°40' W 094°56'0 0.0
2018-May-11 23:30N 29°40' W 094°56'0 0.0
2018-May-11 22:58N 29°40' W 094°56'0 0.0
2018-May-11 22:27N 29°40' W 094°56'0 0.0
2018-May-11 22:00N 29°40' W 094°56'0 0.0
2018-May-11 21:30N 29°40' W 094°56'0 0.0
2018-May-11 21:00N 29°40' W 094°56'0 0.0
2018-May-11 20:30N 29°40' W 094°56'0 0.0
2018-May-11 20:00N 29°40' W 094°56'0 0.0
2018-May-11 19:27N 29°40' W 094°56'0 0.0
2018-May-11 19:00N 29°40' W 094°56'0 0.0
2018-May-11 18:30N 29°40' W 094°56'0 0.3
2018-May-11 18:00N 29°41' W 094°56'0 0.1
2018-May-11 17:30N 29°41' W 094°56'0 0.0
2018-May-11 17:00N 29°41' W 094°56'0 0.0
2018-May-11 16:28N 29°41' W 094°56'0 0.0
2018-May-11 16:00N 29°41' W 094°56'0 0.0
2018-May-11 15:30N 29°41' W 094°56'2 4.1
2018-May-11 14:59N 29°41' W 094°58'2 4.0
2018-May-11 14:30N 29°39' W 094°58'4 7.8
2018-May-11 14:00N 29°36' W 094°57'4 7.9
2018-May-11 13:30N 29°32' W 094°54'4 8.0
2018-May-11 13:00N 29°29' W 094°52'  
Track history (hours):
 
Tides and Currents Weather Stations Pressure Air Temp Water Temp Dewpoint Dewpoint Depression Visibility Wind Speed Wind Dir Waves Ship Positions

Savage Opportunity

Owner: Savage Inland Marine, Gibson, LA. More information available from US FCC via Universal Licensing System and Coast Guard Vessel Documentation Center.

Last reported at 2018-May-21 12:30 UTC. Time now 2018-May-21 12:49 UTC.
Position N 29°42' W 094°60'.

Length 25 m.

Type: Other ship. MMSI: 367555670.

Date/timePositionNaut miles runAvg speedWind from/ knotsBaromVisibWave heightAir tempDewpointWater temp
2018-May-21 12:30N 29°42' W 094°60'1 2.0
2018-May-21 12:00N 29°41' W 094°59'2 3.2
2018-May-21 11:30N 29°41' W 094°57'1 2.1
2018-May-21 11:00N 29°40' W 094°56'0 0.0
2018-May-21 10:29N 29°40' W 094°56'0 0.0
2018-May-21 10:00N 29°40' W 094°56'0 0.0
2018-May-21 09:30N 29°40' W 094°56'0 0.0
2018-May-21 09:00N 29°40' W 094°56'0 0.0
2018-May-21 08:30N 29°40' W 094°56'0 0.0
2018-May-21 08:00N 29°40' W 094°56'0 0.0
2018-May-21 07:30N 29°40' W 094°56'0 0.0
2018-May-21 07:00N 29°40' W 094°56'0 0.0
2018-May-21 06:30N 29°40' W 094°56'0 0.0
2018-May-21 06:00N 29°40' W 094°56'0 0.0
2018-May-21 05:30N 29°40' W 094°56'0 0.0
2018-May-21 05:00N 29°40' W 094°56'0 0.0
2018-May-21 04:30N 29°40' W 094°56'0 0.0
2018-May-21 04:00N 29°40' W 094°56'0 0.0
2018-May-21 03:30N 29°40' W 094°56'0 0.0
2018-May-21 03:00N 29°40' W 094°56'0 0.0
2018-May-21 02:30N 29°40' W 094°56'0 0.0
2018-May-21 02:00N 29°40' W 094°56'0 0.0
2018-May-21 01:30N 29°40' W 094°56'0 0.0
2018-May-21 01:00N 29°40' W 094°56'0 0.0
2018-May-21 00:30N 29°40' W 094°56'0 0.1
2018-May-20 23:58N 29°40' W 094°56'2 5.3
2018-May-20 23:30N 29°41' W 094°58'4 7.1
2018-May-20 23:00N 29°38' W 094°58'5 9.3
2018-May-20 22:30N 29°34' W 094°55'5 9.7
2018-May-20 22:00N 29°30' W 094°52'610.0
2018-May-20 21:25N 29°24' W 094°49'4 9.9
2018-May-20 21:00N 29°21' W 094°47'2 4.8
2018-May-20 20:30N 29°19' W 094°48'1 2.2
2018-May-20 20:00N 29°19' W 094°49'0 0.4
2018-May-20 19:30N 29°19' W 094°49'2 4.7
2018-May-20 19:00N 29°20' W 094°47'20 4.7
2018-May-20 14:43N 29°32' W 094°29'0 0.6
2018-May-20 14:29N 29°33' W 094°29'2 1.3
2018-May-20 13:16N 29°34' W 094°27'2 4.7
2018-May-20 12:54N 29°34' W 094°25'2 4.4
2018-May-20 12:28N 29°36' W 094°25'4 5.3
2018-May-20 11:47N 29°37' W 094°21'2 5.4
2018-May-20 11:29N 29°38' W 094°19'3 5.3
2018-May-20 11:00N 29°39' W 094°16'3 5.2
2018-May-20 10:30N 29°40' W 094°14'3 5.3
2018-May-20 10:00N 29°41' W 094°11'3 5.1
2018-May-20 09:30N 29°42' W 094°08'3 5.4
2018-May-20 09:00N 29°44' W 094°06'3 5.2
2018-May-20 08:30N 29°46' W 094°04'3 5.3
2018-May-20 08:00N 29°47' W 094°01'3 5.2
2018-May-20 07:30N 29°49' W 093°59'1 1.0
2018-May-20 07:00N 29°49' W 093°58'0 0.0
2018-May-20 06:30N 29°49' W 093°58'1 1.2
2018-May-20 06:00N 29°49' W 093°58'3 6.9
2018-May-20 05:30N 29°52' W 093°56'4 7.5
2018-May-20 05:00N 29°55' W 093°53'3 6.7
2018-May-20 04:30N 29°58' W 093°51'3 5.9
2018-May-20 04:00N 29°59' W 093°48'4 7.0
2018-May-20 03:30N 30°01' W 093°45'3 5.8
2018-May-20 03:00N 30°03' W 093°42'3 5.8
2018-May-20 02:30N 30°04' W 093°39'3 5.5
2018-May-20 02:00N 30°04' W 093°36'3 5.3
2018-May-20 01:30N 30°04' W 093°33'3 5.6
2018-May-20 01:00N 30°04' W 093°29'3 5.6
2018-May-20 00:30N 30°04' W 093°26'3 5.6
2018-May-20 00:00N 30°04' W 093°23'2 4.1
2018-May-19 23:30N 30°04' W 093°21'3 5.0
2018-May-19 23:00N 30°06' W 093°19'1 2.8
2018-May-19 22:30N 30°05' W 093°18'1 2.9
2018-May-19 22:00N 30°04' W 093°16'0 0.2
2018-May-19 21:29N 30°04' W 093°16'0 0.0
2018-May-19 21:00N 30°04' W 093°16'0 0.0
2018-May-19 20:30N 30°04' W 093°16'0 0.0
2018-May-19 20:00N 30°04' W 093°16'0 0.0
2018-May-19 19:30N 30°04' W 093°16'0 0.0
2018-May-19 19:00N 30°04' W 093°16'0 0.1
2018-May-19 18:30N 30°04' W 093°16'1 2.7
2018-May-19 18:00N 30°03' W 093°16'2 4.3
2018-May-19 17:30N 30°01' W 093°14'2 3.7
2018-May-19 17:00N 29°60' W 093°13'1 2.5
2018-May-19 16:30N 29°59' W 093°12'2 4.2
2018-May-19 16:00N 29°57' W 093°11'2 4.6
2018-May-19 15:30N 29°56' W 093°08'121 4.1
2018-May-18 09:53N 29°32' W 090°52'2 5.4
2018-May-18 09:30N 29°32' W 090°49'3 5.2
2018-May-18 08:59N 29°32' W 090°46'2 4.6
2018-May-18 08:30N 29°34' W 090°45'2 3.1
2018-May-18 08:00N 29°35' W 090°43'1 2.9
2018-May-18 07:30N 29°36' W 090°43'1 2.5
2018-May-18 07:00N 29°37' W 090°41'2 4.3
2018-May-18 06:30N 29°36' W 090°39'2 4.1
2018-May-18 06:00N 29°35' W 090°37'2 3.7
2018-May-18 05:30N 29°35' W 090°35'2 4.7
2018-May-18 05:00N 29°34' W 090°32'  
2018-May-15 08:09N 29°33' W 090°24'1 5.0
2018-May-15 07:52N 29°33' W 090°26'0 0.7
2018-May-15 07:27N 29°33' W 090°26'0 0.3
2018-May-15 07:00N 29°33' W 090°26'3 5.2
2018-May-15 06:30N 29°34' W 090°29'3 5.8
2018-May-15 06:00N 29°34' W 090°32'3 5.5
2018-May-15 05:30N 29°35' W 090°35'2 4.4
2018-May-15 05:00N 29°35' W 090°38'0 0.1
2018-May-15 04:30N 29°35' W 090°38'0 0.0
2018-May-15 04:00N 29°35' W 090°38'2 3.2
2018-May-15 03:30N 29°36' W 090°39'2 4.7
2018-May-15 03:00N 29°37' W 090°42'2 3.7
2018-May-15 02:30N 29°35' W 090°43'2 4.3
2018-May-15 02:00N 29°34' W 090°45'3 5.3
2018-May-15 01:30N 29°32' W 090°47'4 6.7
2018-May-15 00:59N 29°32' W 090°51'3 6.6
2018-May-15 00:29N 29°33' W 090°55'44 4.4
2018-May-14 14:29N 29°46' W 091°43'3 6.0
2018-May-14 13:58N 29°46' W 091°47'3 5.6
2018-May-14 13:26N 29°48' W 091°49'3 5.1
2018-May-14 12:52N 29°51' W 091°51'2 5.7
2018-May-14 12:30N 29°51' W 091°54'1 2.4
2018-May-14 12:00N 29°51' W 091°55'1 1.3
2018-May-14 11:26N 29°51' W 091°56'2 4.3
2018-May-14 11:00N 29°50' W 091°58'5 5.1
2018-May-14 09:59N 29°49' W 092°04'2 4.9
2018-May-14 09:29N 29°48' W 092°06'3 4.9
2018-May-14 08:57N 29°47' W 092°09'4 2.2
2018-May-14 07:16N 29°48' W 092°13'2 1.9
2018-May-14 06:10N 29°48' W 092°16'0 0.0
2018-May-14 05:51N 29°48' W 092°16'0 0.0
2018-May-14 05:30N 29°48' W 092°16'0 0.0
2018-May-14 04:45N 29°48' W 092°16'0 0.1
2018-May-14 04:29N 29°48' W 092°16'0 0.1
2018-May-14 04:00N 29°48' W 092°16'0 0.0
2018-May-14 03:30N 29°48' W 092°16'0 0.0
2018-May-14 03:00N 29°48' W 092°16'42 4.4
2018-May-13 17:30N 29°56' W 093°03'3 4.6
2018-May-13 16:47N 29°56' W 093°07'2 5.2
2018-May-13 16:24N 29°56' W 093°09'2 5.0
2018-May-13 16:00N 29°57' W 093°11'3 5.3
2018-May-13 15:30N 29°59' W 093°13'2 4.4
2018-May-13 15:00N 30°01' W 093°14'1 1.6
2018-May-13 14:30N 30°02' W 093°15'1 1.9
2018-May-13 14:00N 30°02' W 093°15'3 5.2
2018-May-13 13:30N 30°05' W 093°17'1 2.4
2018-May-13 13:00N 30°05' W 093°18'1 1.4
2018-May-13 12:30N 30°06' W 093°18'0 0.2
2018-May-13 12:00N 30°06' W 093°18'2 3.8
2018-May-13 11:30N 30°05' W 093°20'2 3.4
2018-May-13 11:00N 30°04' W 093°21'2 3.3
2018-May-13 10:30N 30°04' W 093°23'0 0.4
2018-May-13 10:00N 30°04' W 093°24'0 0.5
2018-May-13 09:30N 30°04' W 093°24'2 4.9
2018-May-13 09:00N 30°04' W 093°27'3 5.2
2018-May-13 08:30N 30°04' W 093°30'3 5.1
2018-May-13 08:00N 30°04' W 093°33'3 5.3
2018-May-13 07:30N 30°04' W 093°36'3 5.5
2018-May-13 06:59N 30°04' W 093°39'3 5.4
2018-May-13 06:30N 30°03' W 093°42'2 4.0
2018-May-13 06:00N 30°02' W 093°44'2 4.9
2018-May-13 05:30N 30°00' W 093°46'3 5.0
2018-May-13 05:00N 29°59' W 093°48'3 5.2
2018-May-13 04:30N 29°58' W 093°51'3 5.9
2018-May-13 04:00N 29°56' W 093°53'3 5.8
2018-May-13 03:30N 29°53' W 093°55'2 4.3
2018-May-13 03:00N 29°52' W 093°56'1 2.5
2018-May-13 02:30N 29°51' W 093°57'2 3.5
2018-May-13 02:00N 29°49' W 093°58'2 4.8
2018-May-13 01:30N 29°48' W 094°00'3 6.1
2018-May-13 01:00N 29°46' W 094°03'3 5.7
2018-May-13 00:30N 29°44' W 094°06'3 5.6
2018-May-13 00:00N 29°42' W 094°08'3 5.4
2018-May-12 23:30N 29°41' W 094°11'2 4.3
2018-May-12 23:00N 29°40' W 094°13'3 5.2
2018-May-12 22:30N 29°39' W 094°16'3 5.2
2018-May-12 22:00N 29°38' W 094°19'3 5.1
2018-May-12 21:30N 29°37' W 094°21'1 2.8
2018-May-12 20:59N 29°36' W 094°23'0 0.1
2018-May-12 20:30N 29°36' W 094°23'0 0.1
2018-May-12 19:58N 29°36' W 094°23'1 3.0
2018-May-12 19:30N 29°36' W 094°24'2 3.3
2018-May-12 18:51N 29°34' W 094°26'20 4.3
2018-May-12 14:06N 29°23' W 094°46'1 4.5
2018-May-12 13:57N 29°23' W 094°46'2 4.8
2018-May-12 13:30N 29°21' W 094°47'3 5.7
2018-May-12 13:00N 29°19' W 094°49'0 0.3
2018-May-12 12:20N 29°19' W 094°49'1 4.4
2018-May-12 12:00N 29°19' W 094°47'3 6.5
2018-May-12 11:30N 29°22' W 094°48'7 7.5
2018-May-12 10:36N 29°28' W 094°51'1 7.4
2018-May-12 10:29N 29°29' W 094°52'4 7.8
2018-May-12 10:00N 29°32' W 094°54'4 7.9
2018-May-12 09:29N 29°36' W 094°57'4 7.9
2018-May-12 09:00N 29°39' W 094°58'2 4.2
2018-May-12 08:30N 29°41' W 094°59'2 3.5
2018-May-12 08:00N 29°41' W 094°57'1 1.7
2018-May-12 07:30N 29°40' W 094°56'0 0.0
2018-May-12 07:00N 29°40' W 094°56'0 0.0
2018-May-12 06:30N 29°40' W 094°56'0 0.0
2018-May-12 05:59N 29°40' W 094°56'0 0.0
2018-May-12 05:30N 29°40' W 094°56'0 0.0
2018-May-12 05:00N 29°40' W 094°56'0 0.0
2018-May-12 04:24N 29°40' W 094°56'0 0.0
2018-May-12 04:00N 29°40' W 094°56'0 0.0
2018-May-12 03:28N 29°40' W 094°56'0 0.0
2018-May-12 02:56N 29°40' W 094°56'0 0.0
2018-May-12 02:27N 29°40' W 094°56'0 0.0
2018-May-12 01:53N 29°40' W 094°56'0 0.0
2018-May-12 01:30N 29°40' W 094°56'0 0.0
2018-May-12 00:29N 29°40' W 094°56'0 0.0
2018-May-12 00:00N 29°40' W 094°56'0 0.0
2018-May-11 23:30N 29°40' W 094°56'0 0.0
2018-May-11 22:58N 29°40' W 094°56'0 0.0
2018-May-11 22:27N 29°40' W 094°56'0 0.0
2018-May-11 22:00N 29°40' W 094°56'0 0.0
2018-May-11 21:30N 29°40' W 094°56'0 0.0
2018-May-11 21:00N 29°40' W 094°56'0 0.0
2018-May-11 20:30N 29°40' W 094°56'0 0.0
2018-May-11 20:00N 29°40' W 094°56'0 0.0
2018-May-11 19:27N 29°40' W 094°56'0 0.0
2018-May-11 19:00N 29°40' W 094°56'0 0.0
2018-May-11 18:30N 29°40' W 094°56'0 0.3
2018-May-11 18:00N 29°41' W 094°56'0 0.1
2018-May-11 17:30N 29°41' W 094°56'0 0.0
2018-May-11 17:00N 29°41' W 094°56'0 0.0
2018-May-11 16:28N 29°41' W 094°56'0 0.0
2018-May-11 16:00N 29°41' W 094°56'0 0.0
2018-May-11 15:30N 29°41' W 094°56'2 4.1
2018-May-11 14:59N 29°41' W 094°58'2 4.0
2018-May-11 14:30N 29°39' W 094°58'4 7.8
2018-May-11 14:00N 29°36' W 094°57'4 7.9
2018-May-11 13:30N 29°32' W 094°54'4 8.0
2018-May-11 13:00N 29°29' W 094°52'  

Dump ship's entire track history